createdAt,value
2018-02-13T14:58:15.314Z,79.39
2018-02-13T14:59:25.045Z,80.15
2018-02-13T15:00:34.812Z,77.77
2018-02-13T15:01:44.570Z,74.73
2018-02-13T15:02:54.559Z,81.1
2018-02-13T15:04:04.556Z,82.62
2018-02-13T15:05:13.841Z,80.91
2018-02-13T15:06:23.313Z,82.15
2018-02-13T15:07:33.058Z,77.77
2018-02-13T15:08:42.592Z,74.07
2018-02-13T15:09:51.775Z,77.3
2018-02-13T15:11:01.501Z,75.78
2018-02-13T15:12:10.685Z,80.05
2018-02-13T15:13:20.405Z,76.54
2018-02-13T15:14:30.119Z,75.87
2018-02-13T15:15:39.584Z,78.16
2018-02-13T15:16:49.037Z,80.44
2018-02-13T15:17:58.500Z,80.44
2018-02-13T15:19:07.945Z,82.86
2018-02-13T15:20:17.396Z,81.33
2018-02-13T15:21:26.581Z,74.48
2018-02-13T15:22:36.616Z,77.05
2018-02-13T15:23:46.487Z,80.95
2018-02-13T15:24:56.214Z,77.68
2018-02-13T15:26:05.788Z,78.25
2018-02-13T15:27:15.503Z,74.73
2018-02-13T15:28:24.692Z,73.21
2018-02-13T15:29:33.619Z,76.35
2018-02-13T15:30:43.068Z,73.69
2018-02-13T15:31:52.544Z,72.55
2018-02-13T15:33:02.021Z,71.97
2018-02-13T15:34:11.575Z,74.16
2018-02-13T15:35:21.292Z,74.16
2018-02-13T15:36:30.493Z,73.97
2018-02-13T15:37:40.235Z,75.11
2018-02-13T15:38:49.426Z,75.4
2018-02-13T15:39:58.930Z,74.63
2018-02-13T15:41:08.377Z,75.68
2018-02-13T15:42:18.151Z,78.82
2018-02-13T15:43:27.608Z,73.69
2018-02-13T15:44:37.327Z,70.54
2018-02-13T15:45:47.048Z,71.27
2018-02-13T15:46:56.790Z,76.69
2018-02-13T15:48:06.000Z,76.03
2018-02-13T15:49:15.190Z,76.21
2018-02-13T15:50:24.958Z,71.66
2018-02-13T15:51:34.940Z,72.13
2018-02-13T15:52:44.394Z,78.02
2018-02-13T15:53:53.318Z,73.46
2018-02-13T15:55:02.782Z,72.79
2018-02-13T15:56:11.971Z,73.65
2018-02-13T15:57:21.207Z,78.69
2018-02-13T15:58:30.736Z,81.44
2018-02-13T15:59:40.592Z,81.16
2018-02-13T16:00:49.776Z,82.49
2018-02-13T16:01:59.769Z,76.4
2018-02-13T16:03:09.277Z,74.41
2018-02-13T16:04:19.259Z,71.62
2018-02-13T16:05:29.246Z,72.95
2018-02-13T16:06:38.695Z,76.08
2018-02-13T16:07:48.420Z,76.18
2018-02-13T16:08:57.404Z,77.12
2018-02-13T16:10:07.316Z,79.69
2018-02-13T16:11:16.898Z,76.99
2018-02-13T16:12:26.178Z,76.99
2018-02-13T16:13:35.370Z,79.55
2018-02-13T16:14:44.620Z,83.54
2018-02-13T16:15:54.389Z,80.88
2018-02-13T16:17:04.178Z,78.51
2018-02-13T16:18:13.628Z,76.32
2018-02-13T16:19:23.084Z,75.85
2018-02-13T16:20:32.541Z,76.71
2018-02-13T16:21:41.805Z,78.56
2018-02-13T16:22:51.328Z,80.56
2018-02-13T16:24:00.831Z,80.18
2018-02-13T16:25:10.553Z,80.94
2018-02-13T16:26:19.796Z,82.46
2018-02-13T16:27:29.523Z,82.08
2018-02-13T16:28:38.974Z,85.49
2018-02-13T16:29:48.963Z,88.91
2018-02-13T16:30:58.437Z,87.68
2018-02-13T16:32:07.640Z,87.68
2018-02-13T16:33:17.090Z,85.78
2018-02-13T16:34:26.281Z,87.77
2018-02-13T16:35:35.738Z,84.92
2018-02-13T16:36:44.670Z,85.55
2018-02-13T16:37:54.751Z,86.35
2018-02-13T16:39:04.247Z,86.21
2018-02-13T16:40:13.437Z,85.45
2018-02-13T16:41:22.098Z,85.45
2018-02-13T16:42:32.082Z,85.55
2018-02-13T16:43:42.060Z,84.41
2018-02-13T16:44:52.038Z,83.46
2018-02-13T16:46:01.760Z,86.49
2018-02-13T16:47:10.957Z,87.25
2018-02-13T16:48:20.405Z,86.02
2018-02-13T16:49:29.650Z,87.73
2018-02-13T16:50:39.440Z,86.87
2018-02-13T16:51:49.415Z,87.73
2018-02-13T16:52:58.878Z,87.06
2018-02-13T16:54:08.403Z,89.34
2018-02-13T16:55:17.987Z,92.61
2018-02-13T16:56:27.451Z,92.42
2018-02-13T16:57:37.438Z,94.32
2018-02-13T16:58:47.426Z,95.07
2018-02-13T16:59:57.408Z,94.7
2018-02-13T17:01:07.388Z,93.65
2018-02-13T17:02:16.568Z,92.42
2018-02-13T17:03:25.486Z,92.9
2018-02-13T17:04:34.933Z,92.04
2018-02-13T17:05:44.916Z,91.09
2018-02-13T17:06:54.363Z,90.24
2018-02-13T17:08:04.080Z,92.14
2018-02-13T17:09:13.293Z,89.39
2018-02-13T17:10:23.069Z,88.35
2018-02-13T17:11:32.887Z,88.92
2018-02-13T17:12:42.142Z,90.53
2018-02-13T17:13:51.310Z,87.97
2018-02-13T17:15:00.792Z,90.24
2018-02-13T17:16:10.504Z,92.42
2018-02-13T17:17:19.687Z,92.8
2018-02-13T17:18:29.408Z,90.91
2018-02-13T17:19:38.625Z,90.72
2018-02-13T17:20:47.978Z,89.67
2018-02-13T17:21:57.428Z,88.44
2018-02-13T17:23:06.875Z,86.22
2018-02-13T17:24:16.877Z,88.59
2018-02-13T17:25:26.597Z,84.27
2018-02-13T17:26:36.051Z,86.12
2018-02-13T17:27:45.660Z,88.21
2018-02-13T17:28:55.385Z,88.68
2018-02-13T17:30:04.886Z,87.35
2018-02-13T17:31:14.070Z,84.23
2018-02-13T17:32:23.278Z,85.27
2018-02-13T17:33:32.722Z,89.63
2018-02-13T17:34:42.172Z,86.5
2018-02-13T17:35:51.886Z,88.02
2018-02-13T17:37:01.343Z,86.79
2018-02-13T17:38:10.527Z,86.69
2018-02-13T17:39:20.240Z,87.26
2018-02-13T17:40:29.685Z,88.21
2018-02-13T17:41:39.179Z,88.59
2018-02-13T17:42:49.233Z,90.2
2018-02-13T17:43:59.009Z,92.09
2018-02-13T17:45:08.459Z,88.68
2018-02-13T17:46:17.405Z,88.3
2018-02-13T17:47:26.855Z,87.64
2018-02-13T17:48:35.840Z,88.59
2018-02-13T17:49:45.407Z,92
2018-02-13T17:50:54.615Z,93.32
2018-02-13T17:52:04.103Z,91.05
2018-02-13T17:53:13.915Z,92.85
2018-02-13T17:54:23.415Z,92.76
2018-02-13T17:55:33.398Z,94.74
2018-02-13T17:56:43.236Z,95.88
2018-02-13T17:57:52.707Z,95.6
2018-02-13T17:59:02.188Z,95.03
2018-02-13T18:00:12.256Z,95.6
2018-02-13T18:01:22.333Z,95.55
2018-02-13T18:02:31.777Z,94.65
2018-02-13T18:03:41.250Z,94.74
2018-02-13T18:04:50.753Z,94.89
2018-02-13T18:05:59.948Z,96.31
2018-02-13T18:07:09.135Z,97.63
2018-02-13T18:08:18.425Z,97.92
2018-02-13T18:09:28.500Z,94.98
2018-02-13T18:10:38.646Z,93.42
2018-02-13T18:11:48.418Z,95.36
2018-02-13T18:12:58.201Z,92.14
2018-02-13T18:14:07.881Z,91.19
2018-02-13T18:15:17.700Z,92.8
2018-02-13T18:16:27.608Z,92.52
2018-02-13T18:17:37.917Z,91.76
2018-02-13T18:18:47.315Z,92.24
2018-02-13T18:19:57.021Z,88.92
2018-02-13T18:21:06.727Z,89.49
2018-02-13T18:22:16.467Z,90.81
2018-02-13T18:23:25.956Z,91.19
2018-02-13T18:24:35.500Z,91.95
2018-02-13T18:25:45.791Z,93.94
2018-02-13T18:26:55.246Z,96.02
2018-02-13T18:28:05.027Z,97.35
2018-02-13T18:29:15.123Z,98.3
2018-02-13T18:30:24.997Z,98.39
2018-02-13T18:31:34.799Z,99.33
2018-02-13T18:32:44.735Z,99.99
2018-02-13T18:33:54.270Z,99.99
2018-02-13T18:35:05.311Z,99.43
2018-02-13T18:36:15.523Z,99.71
2018-02-13T18:37:24.999Z,99.99
2018-02-13T18:38:34.888Z,98.49
2018-02-13T18:39:45.354Z,99.15
2018-02-13T18:40:55.332Z,99.99
2018-02-13T18:42:05.067Z,99.24
2018-02-13T18:43:15.005Z,99.71
2018-02-13T18:44:24.516Z,99.15
2018-02-13T18:45:34.445Z,98.11
2018-02-13T18:46:44.376Z,99.05
2018-02-13T18:47:54.225Z,99.9
2018-02-13T18:49:04.242Z,99.99
2018-02-13T18:50:14.127Z,99.52
2018-02-13T18:51:24.304Z,98.01
2018-02-13T18:53:42.382Z,98.01
2018-02-13T18:54:52.466Z,99.15
2018-02-13T18:56:02.101Z,99.19
2018-02-13T18:57:12.082Z,99.99
2018-02-13T18:58:22.159Z,99.99
2018-02-13T18:59:31.630Z,99.99
2018-02-13T19:00:41.986Z,99.38
2018-02-13T19:01:51.451Z,97.11
2018-02-13T19:03:01.596Z,92.85
2018-02-13T19:04:11.624Z,94.08
2018-02-13T19:05:21.037Z,94.93
2018-02-13T19:06:31.311Z,96.45
2018-02-13T19:07:41.247Z,94.74
2018-02-13T19:08:52.358Z,94.84
2018-02-13T19:10:02.154Z,95.78
2018-02-13T19:11:12.797Z,96.16
2018-02-13T19:12:22.627Z,94.74
2018-02-13T19:13:33.020Z,93.13
2018-02-13T19:14:42.267Z,93.99
2018-02-13T19:15:51.828Z,92.29
2018-02-13T19:18:10.927Z,90.39
2018-02-13T19:19:20.713Z,92.19
2018-02-13T19:20:32.083Z,92.94
2018-02-13T19:21:41.619Z,92.1
2018-02-13T19:22:51.329Z,89.25
2018-02-13T19:24:01.131Z,89.16
2018-02-13T19:25:11.737Z,90.34
2018-02-13T19:26:22.129Z,90.77
2018-02-13T19:27:31.627Z,92.29
2018-02-13T19:28:41.438Z,92.29
2018-02-13T19:29:51.437Z,91.15
2018-02-13T19:31:00.959Z,90.11
2018-02-13T19:32:10.505Z,87.74
2018-02-13T19:33:20.319Z,85.47
2018-02-13T19:34:30.038Z,86.04
2018-02-13T19:35:39.931Z,86.89
2018-02-13T19:36:49.468Z,86.6
2018-02-13T19:37:59.665Z,85.28
2018-02-13T19:39:09.454Z,85.19
2018-02-13T19:40:19.263Z,85.28
2018-02-13T19:41:29.117Z,85.28
2018-02-13T19:42:38.963Z,85.57
2018-02-13T19:43:49.054Z,84.71
2018-02-13T19:44:58.180Z,84.14
2018-02-13T19:46:07.082Z,84.61
2018-02-13T19:47:16.968Z,84.52
2018-02-13T19:48:26.514Z,84.71
2018-02-13T19:49:36.349Z,83.67
2018-02-13T19:50:46.187Z,84.61
2018-02-13T19:51:56.318Z,84.61
2018-02-13T19:53:06.533Z,85.28
2018-02-13T19:54:15.694Z,86.41
2018-02-13T19:55:26.106Z,86.13
2018-02-13T19:56:35.991Z,86.7
2018-02-13T19:57:45.527Z,87.27
2018-02-13T19:58:55.376Z,86.98
2018-02-13T20:00:05.776Z,86.98
2018-02-13T20:01:16.273Z,87.36
2018-02-13T20:02:25.902Z,86.6
2018-02-13T20:03:35.185Z,86.89
2018-02-13T20:04:45.072Z,87.36
2018-02-13T20:05:55.115Z,87.36
2018-02-13T20:07:05.178Z,87.55
2018-02-13T20:08:15.177Z,87.55
2018-02-13T20:09:24.900Z,86.89
2018-02-13T20:10:35.067Z,87.08
2018-02-13T20:11:45.309Z,87.74
2018-02-13T20:12:55.467Z,88.49
2018-02-13T20:14:05.325Z,89.25
2018-02-13T20:15:14.514Z,88.49
2018-02-13T20:16:24.186Z,88.02
2018-02-13T20:17:33.637Z,88.31
2018-02-13T20:18:43.193Z,87.46
2018-02-13T20:19:52.408Z,87.74
2018-02-13T20:21:01.921Z,87.74
2018-02-13T20:22:11.385Z,88.4
2018-02-13T20:23:20.606Z,88.55
2018-02-13T20:24:30.355Z,88.26
2018-02-13T20:25:39.817Z,88.36
2018-02-13T20:26:49.270Z,88.74
2018-02-13T20:27:59.037Z,88.93
2018-02-13T20:29:08.790Z,89.31
2018-02-13T20:30:17.973Z,89.12
2018-02-13T20:31:27.421Z,89.21
2018-02-13T20:32:37.161Z,88.36
2018-02-13T20:33:46.636Z,87.79
2018-02-13T20:34:56.403Z,87.13
2018-02-13T20:36:05.468Z,87.6
2018-02-13T20:37:15.297Z,88.26
2018-02-13T20:38:24.774Z,88.07
2018-02-13T20:39:34.305Z,88.07
2018-02-13T20:40:43.755Z,88.17
2018-02-13T20:41:52.968Z,88.36
2018-02-13T20:43:02.049Z,88.45
2018-02-13T20:44:11.073Z,88.64
2018-02-13T20:45:20.851Z,89.31
2018-02-13T20:46:30.634Z,88.55
2018-02-13T20:47:40.225Z,87.6
2018-02-13T20:48:50.518Z,87.79
2018-02-13T20:50:00.124Z,87.79
2018-02-13T20:51:09.794Z,88.17
2018-02-13T20:52:19.618Z,88.17
2018-02-13T20:53:29.736Z,88.17
2018-02-13T20:54:39.624Z,88.17
2018-02-13T20:55:49.152Z,88.26
2018-02-13T20:56:58.698Z,88.55
2018-02-13T20:58:08.884Z,88.07
2018-02-13T20:59:17.610Z,88.55
2018-02-13T21:00:27.199Z,88.55
2018-02-13T21:01:36.328Z,88.64
2018-02-13T21:02:46.008Z,88.64
2018-02-13T21:03:55.951Z,88.74
2018-02-13T21:05:06.005Z,87.51
2018-02-13T21:06:15.450Z,87.6
2018-02-13T21:07:25.196Z,87.13
2018-02-13T21:08:34.824Z,86.94
2018-02-13T21:09:44.116Z,87.6
2018-02-13T21:10:53.991Z,88.26
2018-02-13T21:12:02.739Z,88.07
2018-02-13T21:13:12.960Z,88.17
2018-02-13T21:14:21.949Z,88.26
2018-02-13T21:15:31.574Z,88.74
2018-02-13T21:16:41.330Z,88.36
2018-02-13T21:17:50.901Z,88.07
2018-02-13T21:19:00.625Z,89.21
2018-02-13T21:20:10.734Z,89.87
2018-02-13T21:21:19.945Z,88.17
2018-02-13T21:22:29.515Z,87.13
2018-02-13T21:23:39.257Z,87.7
2018-02-13T21:24:49.125Z,87.98
2018-02-13T21:25:58.724Z,88.45
2018-02-13T21:27:08.219Z,89.21
2018-02-13T21:28:17.960Z,88.36
2018-02-13T21:29:27.928Z,87.13
2018-02-13T21:30:38.247Z,86.66
2018-02-13T21:31:47.920Z,85.9
2018-02-13T21:32:57.951Z,86.09
2018-02-13T21:34:07.634Z,85.9
2018-02-13T21:35:17.719Z,85.33
2018-02-13T21:36:28.078Z,84.86
2018-02-13T21:37:37.428Z,84.39
2018-02-13T21:38:47.328Z,84.29
2018-02-13T21:39:57.317Z,84.77
2018-02-13T21:41:06.410Z,86.18
2018-02-13T21:42:16.197Z,85.52
2018-02-13T21:43:26.143Z,83.72
2018-02-13T21:44:35.463Z,83.34
2018-02-13T21:45:45.689Z,83.06
2018-02-13T21:46:55.900Z,82.97
2018-02-13T21:48:05.955Z,84.86
2018-02-13T21:49:16.020Z,85.9
2018-02-13T21:50:25.440Z,85.99
2018-02-13T21:51:35.603Z,85.9
2018-02-13T21:52:45.595Z,85.24
2018-02-13T21:53:55.369Z,85.14
2018-02-13T21:55:05.223Z,84.29
2018-02-13T21:56:14.848Z,84.67
2018-02-13T21:57:24.835Z,83.72
2018-02-13T21:58:34.887Z,84.39
2018-02-13T21:59:44.959Z,84.58
2018-02-13T22:00:54.881Z,84.77
2018-02-13T22:02:04.480Z,84.67
2018-02-13T22:03:14.615Z,83.44
2018-02-13T22:04:24.532Z,83.25
2018-02-13T22:05:34.541Z,86.09
2018-02-13T22:06:44.626Z,86.28
2018-02-13T22:07:53.963Z,85.8
2018-02-13T22:09:03.266Z,85.52
2018-02-13T22:10:13.144Z,85.24
2018-02-13T22:11:24.087Z,85.24
2018-02-13T22:12:34.048Z,84.77
2018-02-13T22:13:43.793Z,84.2
2018-02-13T22:14:54.190Z,85.52
2018-02-13T22:16:04.169Z,85.52
2018-02-13T22:17:13.731Z,85.24
2018-02-13T22:18:23.332Z,84.86
2018-02-13T22:19:32.809Z,86.18
2018-02-13T22:20:42.300Z,85.52
2018-02-13T22:21:51.340Z,85.05
2018-02-13T22:23:00.587Z,84.39
2018-02-13T22:24:10.287Z,84.2
2018-02-13T22:25:19.483Z,84.86
2018-02-13T22:26:29.016Z,84.67
2018-02-13T22:27:38.538Z,85.33
2018-02-13T22:28:48.654Z,86.18
2018-02-13T22:29:58.569Z,86.66
2018-02-13T22:31:08.357Z,84.2
2018-02-13T22:32:17.875Z,84.1
2018-02-13T22:33:27.754Z,83.63
2018-02-13T22:34:37.201Z,84.86
2018-02-13T22:35:47.074Z,84.86
2018-02-13T22:36:57.032Z,85.24
2018-02-13T22:38:06.989Z,85.42
2018-02-13T22:39:17.019Z,85.33
2018-02-13T22:40:26.321Z,84.39
2018-02-13T22:41:35.898Z,85.61
2018-02-13T22:42:46.003Z,85.42
2018-02-13T22:43:55.544Z,85.42
2018-02-13T22:45:05.137Z,84.1
2018-02-13T22:46:14.604Z,85.52
2018-02-13T22:47:24.057Z,86.04
2018-02-13T22:48:34.084Z,86.56
2018-02-13T22:49:44.097Z,86.75
2018-02-13T22:50:53.324Z,85.24
2018-02-13T22:52:03.385Z,83.53
2018-02-13T22:53:12.126Z,83.06
2018-02-13T22:54:21.626Z,84.95
2018-02-13T22:55:31.369Z,85.61
2018-02-13T22:56:41.574Z,85.52
2018-02-13T22:57:51.161Z,83.53
2018-02-13T22:59:00.620Z,84.67
2018-02-13T23:00:10.097Z,84.2
2018-02-13T23:01:19.617Z,82.68
2018-02-13T23:02:29.623Z,82.12
2018-02-13T23:03:39.647Z,82.59
2018-02-13T23:04:49.426Z,83.25
2018-02-13T23:05:59.431Z,82.4
2018-02-13T23:07:08.880Z,81.26
2018-02-13T23:08:18.635Z,82.4
2018-02-13T23:09:28.645Z,82.68
2018-02-13T23:10:38.387Z,83.06
2018-02-13T23:11:47.847Z,83.63
2018-02-13T23:12:57.033Z,84.1
2018-02-13T23:14:06.382Z,83.91
2018-02-13T23:15:16.178Z,84.86
2018-02-13T23:16:25.451Z,84.67
2018-02-13T23:17:35.007Z,85.05
2018-02-13T23:18:44.489Z,84.67
2018-02-13T23:19:54.263Z,84.2
2018-02-13T23:21:03.245Z,84.1
2018-02-13T23:22:12.697Z,83.53
2018-02-13T23:23:22.409Z,83.72
2018-02-13T23:24:31.369Z,84.1
2018-02-13T23:25:40.925Z,84.29
2018-02-13T23:26:50.720Z,84.86
2018-02-13T23:27:59.686Z,84.39
2018-02-13T23:29:08.636Z,84.67
2018-02-13T23:30:18.358Z,84.58
2018-02-13T23:31:28.071Z,84.29
2018-02-13T23:32:37.792Z,84.2
2018-02-13T23:33:47.002Z,84.2
2018-02-13T23:34:56.714Z,83.63
2018-02-13T23:36:05.906Z,83.34
2018-02-13T23:37:15.364Z,83.72
2018-02-13T23:38:25.086Z,83.72
2018-02-13T23:39:34.611Z,83.53
2018-02-13T23:40:44.103Z,82.4
2018-02-13T23:41:54.102Z,82.68
2018-02-13T23:43:03.919Z,83.15
2018-02-13T23:44:13.931Z,84.29
2018-02-13T23:45:23.116Z,85.42
2018-02-13T23:46:32.894Z,84.58
2018-02-13T23:47:42.632Z,83.72
2018-02-13T23:48:52.349Z,83.44
2018-02-13T23:50:01.914Z,83.06
2018-02-13T23:51:12.034Z,83.53
2018-02-13T23:52:22.055Z,83.06
2018-02-13T23:53:31.798Z,82.78
2018-02-13T23:54:41.518Z,82.87
2018-02-13T23:55:51.002Z,82.02
2018-02-13T23:57:00.497Z,82.59
2018-02-13T23:58:10.257Z,82.68
2018-02-13T23:59:19.750Z,82.97
